sensor_id;sensor_type;location;lat;lon;timestamp;temperature;humidity
18797;DHT22;9526;52.612;13.300;2022-07-23T00:01:56;17.00;99.90
18797;DHT22;9526;52.612;13.300;2022-07-23T00:04:20;16.90;99.90
18797;DHT22;9526;52.612;13.300;2022-07-23T00:06:43;16.90;99.90
18797;DHT22;9526;52.612;13.300;2022-07-23T00:09:07;16.90;99.90
18797;DHT22;9526;52.612;13.300;2022-07-23T00:11:31;16.90;99.90
18797;DHT22;9526;52.612;13.300;2022-07-23T00:13:54;16.90;99.90
18797;DHT22;9526;52.612;13.300;2022-07-23T00:16:21;16.90;99.90
18797;DHT22;9526;52.612;13.300;2022-07-23T00:18:45;16.90;99.90
18797;DHT22;9526;52.612;13.300;2022-07-23T00:21:09;16.90;99.90
18797;DHT22;9526;52.612;13.300;2022-07-23T00:23:32;16.90;99.90
18797;DHT22;9526;52.612;13.300;2022-07-23T00:25:56;16.90;99.90
18797;DHT22;9526;52.612;13.300;2022-07-23T00:28:20;16.80;99.90
18797;DHT22;9526;52.612;13.300;2022-07-23T00:30:44;16.80;99.90
18797;DHT22;9526;52.612;13.300;2022-07-23T00:33:10;16.80;99.90
18797;DHT22;9526;52.612;13.300;2022-07-23T00:35:35;16.80;99.90
18797;DHT22;9526;52.612;13.300;2022-07-23T00:38:03;16.80;99.90
18797;DHT22;9526;52.612;13.300;2022-07-23T00:40:28;16.90;99.90
18797;DHT22;9526;52.612;13.300;2022-07-23T00:42:52;16.80;99.90
18797;DHT22;9526;52.612;13.300;2022-07-23T00:45:16;16.80;99.90
18797;DHT22;9526;52.612;13.300;2022-07-23T00:47:40;16.80;99.90
18797;DHT22;9526;52.612;13.300;2022-07-23T00:50:07;16.80;99.90
18797;DHT22;9526;52.612;13.300;2022-07-23T00:52:33;16.80;99.90
18797;DHT22;9526;52.612;13.300;2022-07-23T00:54:57;16.80;99.90
18797;DHT22;9526;52.612;13.300;2022-07-23T00:57:21;16.70;99.90
18797;DHT22;9526;52.612;13.300;2022-07-23T00:59:49;16.70;99.90
18797;DHT22;9526;52.612;13.300;2022-07-23T01:02:13;16.70;99.90
18797;DHT22;9526;52.612;13.300;2022-07-23T01:04:37;16.70;99.90
18797;DHT22;9526;52.612;13.300;2022-07-23T01:07:02;16.70;99.90
18797;DHT22;9526;52.612;13.300;2022-07-23T01:09:26;16.60;99.90
18797;DHT22;9526;52.612;13.300;2022-07-23T01:11:51;16.60;99.90
18797;DHT22;9526;52.612;13.300;2022-07-23T01:14:18;16.50;99.90
18797;DHT22;9526;52.612;13.300;2022-07-23T01:16:43;16.50;99.90
18797;DHT22;9526;52.612;13.300;2022-07-23T01:19:08;16.40;99.90
18797;DHT22;9526;52.612;13.300;2022-07-23T01:21:35;16.40;99.90
18797;DHT22;9526;52.612;13.300;2022-07-23T01:24:01;16.40;99.90
18797;DHT22;9526;52.612;13.300;2022-07-23T01:26:27;16.40;99.90
18797;DHT22;9526;52.612;13.300;2022-07-23T01:28:50;16.40;99.90
18797;DHT22;9526;52.612;13.300;2022-07-23T01:31:14;16.40;99.90
18797;DHT22;9526;52.612;13.300;2022-07-23T01:33:39;16.40;99.90
18797;DHT22;9526;52.612;13.300;2022-07-23T01:36:03;16.40;99.90
18797;DHT22;9526;52.612;13.300;2022-07-23T01:38:27;16.30;99.90
18797;DHT22;9526;52.612;13.300;2022-07-23T01:40:52;16.30;99.90
18797;DHT22;9526;52.612;13.300;2022-07-23T01:43:21;16.30;99.90
18797;DHT22;9526;52.612;13.300;2022-07-23T01:45:47;16.30;99.90
18797;DHT22;9526;52.612;13.300;2022-07-23T01:48:11;16.20;99.90
18797;DHT22;9526;52.612;13.300;2022-07-23T01:50:41;16.20;99.90
18797;DHT22;9526;52.612;13.300;2022-07-23T01:53:23;16.20;99.90
18797;DHT22;9526;52.612;13.300;2022-07-23T01:55:47;16.10;99.90
18797;DHT22;9526;52.612;13.300;2022-07-23T01:58:12;16.10;99.90
18797;DHT22;9526;52.612;13.300;2022-07-23T02:00:36;16.10;99.90
18797;DHT22;9526;52.612;13.300;2022-07-23T02:03:00;16.10;99.90
18797;DHT22;9526;52.612;13.300;2022-07-23T02:05:24;16.10;99.90
18797;DHT22;9526;52.612;13.300;2022-07-23T02:07:50;16.10;99.90
18797;DHT22;9526;52.612;13.300;2022-07-23T02:10:16;16.10;99.90
18797;DHT22;9526;52.612;13.300;2022-07-23T02:12:40;16.10;99.90
18797;DHT22;9526;52.612;13.300;2022-07-23T02:15:07;16.10;99.90
18797;DHT22;9526;52.612;13.300;2022-07-23T02:17:31;16.10;99.90
18797;DHT22;9526;52.612;13.300;2022-07-23T02:19:56;16.20;99.90
18797;DHT22;9526;52.612;13.300;2022-07-23T02:22:21;16.10;99.90
18797;DHT22;9526;52.612;13.300;2022-07-23T02:24:44;16.10;99.90
18797;DHT22;9526;52.612;13.300;2022-07-23T02:27:08;16.10;99.90
18797;DHT22;9526;52.612;13.300;2022-07-23T02:29:32;16.10;99.90
18797;DHT22;9526;52.612;13.300;2022-07-23T02:31:57;16.20;99.90
18797;DHT22;9526;52.612;13.300;2022-07-23T02:34:21;16.20;99.90
18797;DHT22;9526;52.612;13.300;2022-07-23T02:36:45;16.20;99.90
18797;DHT22;9526;52.612;13.300;2022-07-23T02:39:08;16.20;99.90
18797;DHT22;9526;52.612;13.300;2022-07-23T02:41:33;16.20;99.90
18797;DHT22;9526;52.612;13.300;2022-07-23T02:43:57;16.20;99.90
18797;DHT22;9526;52.612;13.300;2022-07-23T02:46:21;16.10;99.90
18797;DHT22;9526;52.612;13.300;2022-07-23T02:48:47;16.10;99.90
18797;DHT22;9526;52.612;13.300;2022-07-23T02:51:11;16.10;99.90
18797;DHT22;9526;52.612;13.300;2022-07-23T02:53:41;16.20;99.90
18797;DHT22;9526;52.612;13.300;2022-07-23T02:56:04;16.20;99.90
18797;DHT22;9526;52.612;13.300;2022-07-23T02:58:28;16.20;99.90
18797;DHT22;9526;52.612;13.300;2022-07-23T03:00:52;16.20;99.90
18797;DHT22;9526;52.612;13.300;2022-07-23T03:03:16;16.20;99.90
18797;DHT22;9526;52.612;13.300;2022-07-23T03:05:41;16.20;99.90
18797;DHT22;9526;52.612;13.300;2022-07-23T03:08:05;16.30;99.90
18797;DHT22;9526;52.612;13.300;2022-07-23T03:10:31;16.20;99.90
18797;DHT22;9526;52.612;13.300;2022-07-23T03:12:55;16.20;99.90
18797;DHT22;9526;52.612;13.300;2022-07-23T03:15:19;16.20;99.90
18797;DHT22;9526;52.612;13.300;2022-07-23T03:17:43;16.30;99.90
18797;DHT22;9526;52.612;13.300;2022-07-23T03:20:09;16.30;99.90
18797;DHT22;9526;52.612;13.300;2022-07-23T03:22:35;16.20;99.90
18797;DHT22;9526;52.612;13.300;2022-07-23T03:24:58;16.20;99.90
18797;DHT22;9526;52.612;13.300;2022-07-23T03:27:29;16.20;99.90
18797;DHT22;9526;52.612;13.300;2022-07-23T03:29:54;16.20;99.90
18797;DHT22;9526;52.612;13.300;2022-07-23T03:32:19;16.20;99.90
18797;DHT22;9526;52.612;13.300;2022-07-23T03:34:43;16.20;99.90
18797;DHT22;9526;52.612;13.300;2022-07-23T03:37:07;16.20;99.90
18797;DHT22;9526;52.612;13.300;2022-07-23T03:39:33;16.20;99.90
18797;DHT22;9526;52.612;13.300;2022-07-23T03:41:56;16.20;99.90
18797;DHT22;9526;52.612;13.300;2022-07-23T03:44:20;16.30;99.90
18797;DHT22;9526;52.612;13.300;2022-07-23T03:46:44;16.20;99.90
18797;DHT22;9526;52.612;13.300;2022-07-23T03:49:08;16.30;99.90
18797;DHT22;9526;52.612;13.300;2022-07-23T03:51:31;16.30;99.90
18797;DHT22;9526;52.612;13.300;2022-07-23T03:53:55;16.30;99.90
18797;DHT22;9526;52.612;13.300;2022-07-23T03:56:20;16.30;99.90
18797;DHT22;9526;52.612;13.300;2022-07-23T03:58:44;16.30;99.90
18797;DHT22;9526;52.612;13.300;2022-07-23T04:01:08;16.30;99.90
18797;DHT22;9526;52.612;13.300;2022-07-23T04:03:31;16.30;99.90
18797;DHT22;9526;52.612;13.300;2022-07-23T04:05:55;16.30;99.90
18797;DHT22;9526;52.612;13.300;2022-07-23T04:08:19;16.30;99.90
18797;DHT22;9526;52.612;13.300;2022-07-23T04:10:45;16.30;99.90
18797;DHT22;9526;52.612;13.300;2022-07-23T04:13:11;16.40;99.90
18797;DHT22;9526;52.612;13.300;2022-07-23T04:15:35;16.40;99.90
18797;DHT22;9526;52.612;13.300;2022-07-23T04:18:00;16.40;99.90
18797;DHT22;9526;52.612;13.300;2022-07-23T04:20:33;16.40;99.90
18797;DHT22;9526;52.612;13.300;2022-07-23T04:23:02;16.50;99.90
18797;DHT22;9526;52.612;13.300;2022-07-23T04:25:27;16.50;99.90
18797;DHT22;9526;52.612;13.300;2022-07-23T04:27:50;16.40;99.90
18797;DHT22;9526;52.612;13.300;2022-07-23T04:30:16;16.40;99.90
18797;DHT22;9526;52.612;13.300;2022-07-23T04:32:40;16.30;99.90
18797;DHT22;9526;52.612;13.300;2022-07-23T04:35:12;16.30;99.90
18797;DHT22;9526;52.612;13.300;2022-07-23T04:37:36;16.20;99.90
18797;DHT22;9526;52.612;13.300;2022-07-23T04:40:00;16.30;99.90
18797;DHT22;9526;52.612;13.300;2022-07-23T04:42:24;16.30;99.90
18797;DHT22;9526;52.612;13.300;2022-07-23T04:44:48;16.30;99.90
18797;DHT22;9526;52.612;13.300;2022-07-23T04:47:13;16.40;99.90
18797;DHT22;9526;52.612;13.300;2022-07-23T04:49:39;16.30;99.90
18797;DHT22;9526;52.612;13.300;2022-07-23T04:52:03;16.20;99.90
18797;DHT22;9526;52.612;13.300;2022-07-23T04:54:27;16.30;99.90
18797;DHT22;9526;52.612;13.300;2022-07-23T04:56:51;16.30;99.90
18797;DHT22;9526;52.612;13.300;2022-07-23T04:59:15;16.30;99.90
18797;DHT22;9526;52.612;13.300;2022-07-23T05:01:41;16.30;99.90
18797;DHT22;9526;52.612;13.300;2022-07-23T05:04:07;16.30;99.90
18797;DHT22;9526;52.612;13.300;2022-07-23T05:06:32;16.30;99.90
18797;DHT22;9526;52.612;13.300;2022-07-23T05:08:55;16.30;99.90
18797;DHT22;9526;52.612;13.300;2022-07-23T05:11:20;16.30;99.90
18797;DHT22;9526;52.612;13.300;2022-07-23T05:13:48;16.30;99.90
18797;DHT22;9526;52.612;13.300;2022-07-23T05:16:14;16.20;99.90
18797;DHT22;9526;52.612;13.300;2022-07-23T05:18:38;16.20;99.90
18797;DHT22;9526;52.612;13.300;2022-07-23T05:21:04;16.20;99.90
18797;DHT22;9526;52.612;13.300;2022-07-23T05:23:28;16.20;99.90
18797;DHT22;9526;52.612;13.300;2022-07-23T05:25:52;16.10;99.90
18797;DHT22;9526;52.612;13.300;2022-07-23T05:28:16;16.20;99.90
18797;DHT22;9526;52.612;13.300;2022-07-23T05:30:45;16.10;99.90
18797;DHT22;9526;52.612;13.300;2022-07-23T05:33:11;16.10;99.90
18797;DHT22;9526;52.612;13.300;2022-07-23T05:35:36;16.00;99.90
18797;DHT22;9526;52.612;13.300;2022-07-23T05:38:21;16.10;99.90
18797;DHT22;9526;52.612;13.300;2022-07-23T05:40:45;16.20;99.90
18797;DHT22;9526;52.612;13.300;2022-07-23T05:43:09;16.20;99.90
18797;DHT22;9526;52.612;13.300;2022-07-23T05:45:33;16.20;99.90
18797;DHT22;9526;52.612;13.300;2022-07-23T05:47:57;16.30;99.90
18797;DHT22;9526;52.612;13.300;2022-07-23T05:50:27;16.30;99.90
18797;DHT22;9526;52.612;13.300;2022-07-23T05:53:05;16.40;99.90
18797;DHT22;9526;52.612;13.300;2022-07-23T05:56:00;16.30;99.90
18797;DHT22;9526;52.612;13.300;2022-07-23T05:58:25;16.40;99.90
18797;DHT22;9526;52.612;13.300;2022-07-23T06:00:49;16.40;99.90
18797;DHT22;9526;52.612;13.300;2022-07-23T06:03:13;16.50;99.90
18797;DHT22;9526;52.612;13.300;2022-07-23T06:05:37;16.50;99.90
18797;DHT22;9526;52.612;13.300;2022-07-23T06:08:01;16.40;99.90
18797;DHT22;9526;52.612;13.300;2022-07-23T06:10:25;16.40;99.90
18797;DHT22;9526;52.612;13.300;2022-07-23T06:12:51;16.40;99.90
18797;DHT22;9526;52.612;13.300;2022-07-23T06:15:22;16.40;99.90
18797;DHT22;9526;52.612;13.300;2022-07-23T06:17:46;16.40;99.90
18797;DHT22;9526;52.612;13.300;2022-07-23T06:20:11;16.40;99.90
18797;DHT22;9526;52.612;13.300;2022-07-23T06:22:35;16.40;99.90
18797;DHT22;9526;52.612;13.300;2022-07-23T06:24:59;16.30;99.90
18797;DHT22;9526;52.612;13.300;2022-07-23T06:27:23;16.40;99.90
18797;DHT22;9526;52.612;13.300;2022-07-23T06:29:49;16.40;99.90
18797;DHT22;9526;52.612;13.300;2022-07-23T06:32:12;16.50;99.90
18797;DHT22;9526;52.612;13.300;2022-07-23T06:34:38;16.50;99.90
18797;DHT22;9526;52.612;13.300;2022-07-23T06:37:09;16.50;99.90
18797;DHT22;9526;52.612;13.300;2022-07-23T06:39:35;16.60;99.90
18797;DHT22;9526;52.612;13.300;2022-07-23T06:41:58;16.60;99.90
18797;DHT22;9526;52.612;13.300;2022-07-23T06:44:45;16.60;99.90
18797;DHT22;9526;52.612;13.300;2022-07-23T06:47:12;16.60;99.90
18797;DHT22;9526;52.612;13.300;2022-07-23T06:49:36;16.70;99.90
18797;DHT22;9526;52.612;13.300;2022-07-23T06:52:03;16.80;99.90
18797;DHT22;9526;52.612;13.300;2022-07-23T06:54:28;16.80;99.90
18797;DHT22;9526;52.612;13.300;2022-07-23T06:56:51;16.80;99.90
18797;DHT22;9526;52.612;13.300;2022-07-23T06:59:15;16.70;99.90
18797;DHT22;9526;52.612;13.300;2022-07-23T07:01:39;16.70;99.90
18797;DHT22;9526;52.612;13.300;2022-07-23T07:04:05;16.70;99.90
18797;DHT22;9526;52.612;13.300;2022-07-23T07:06:29;16.70;99.90
18797;DHT22;9526;52.612;13.300;2022-07-23T07:08:52;16.70;99.90
18797;DHT22;9526;52.612;13.300;2022-07-23T07:11:17;16.70;99.90
18797;DHT22;9526;52.612;13.300;2022-07-23T07:13:41;16.70;99.90
18797;DHT22;9526;52.612;13.300;2022-07-23T07:16:05;16.70;99.90
18797;DHT22;9526;52.612;13.300;2022-07-23T07:18:29;16.80;99.90
18797;DHT22;9526;52.612;13.300;2022-07-23T07:20:55;17.00;99.90
18797;DHT22;9526;52.612;13.300;2022-07-23T07:23:18;17.00;99.90
18797;DHT22;9526;52.612;13.300;2022-07-23T07:25:42;17.00;99.90
18797;DHT22;9526;52.612;13.300;2022-07-23T07:28:06;16.90;99.90
18797;DHT22;9526;52.612;13.300;2022-07-23T07:30:30;17.10;99.90
18797;DHT22;9526;52.612;13.300;2022-07-23T07:32:55;17.20;99.90
18797;DHT22;9526;52.612;13.300;2022-07-23T07:35:19;17.30;99.90
18797;DHT22;9526;52.612;13.300;2022-07-23T07:37:44;17.30;99.90
18797;DHT22;9526;52.612;13.300;2022-07-23T07:40:09;17.40;99.90
18797;DHT22;9526;52.612;13.300;2022-07-23T07:42:33;17.50;99.90
18797;DHT22;9526;52.612;13.300;2022-07-23T07:44:56;17.60;99.90
18797;DHT22;9526;52.612;13.300;2022-07-23T07:47:20;17.60;99.90
18797;DHT22;9526;52.612;13.300;2022-07-23T07:49:44;17.60;99.90
18797;DHT22;9526;52.612;13.300;2022-07-23T07:52:08;17.50;99.90
18797;DHT22;9526;52.612;13.300;2022-07-23T07:54:35;17.50;99.90
18797;DHT22;9526;52.612;13.300;2022-07-23T07:56:58;17.60;99.90
18797;DHT22;9526;52.612;13.300;2022-07-23T07:59:22;17.70;99.90
18797;DHT22;9526;52.612;13.300;2022-07-23T08:01:52;17.90;99.90
18797;DHT22;9526;52.612;13.300;2022-07-23T08:04:16;18.00;99.90
18797;DHT22;9526;52.612;13.300;2022-07-23T08:06:40;18.10;99.90
18797;DHT22;9526;52.612;13.300;2022-07-23T08:09:04;18.20;99.90
18797;DHT22;9526;52.612;13.300;2022-07-23T08:11:29;18.30;99.90
18797;DHT22;9526;52.612;13.300;2022-07-23T08:13:53;18.50;99.90
18797;DHT22;9526;52.612;13.300;2022-07-23T08:16:17;18.50;99.90
18797;DHT22;9526;52.612;13.300;2022-07-23T08:18:41;18.50;99.90
18797;DHT22;9526;52.612;13.300;2022-07-23T08:21:05;18.60;99.90
18797;DHT22;9526;52.612;13.300;2022-07-23T08:23:28;18.60;99.90
18797;DHT22;9526;52.612;13.300;2022-07-23T08:25:52;18.50;99.90
18797;DHT22;9526;52.612;13.300;2022-07-23T08:28:17;18.40;99.90
18797;DHT22;9526;52.612;13.300;2022-07-23T08:30:43;18.40;99.90
18797;DHT22;9526;52.612;13.300;2022-07-23T08:33:09;18.50;99.90
18797;DHT22;9526;52.612;13.300;2022-07-23T08:35:54;18.50;99.90
18797;DHT22;9526;52.612;13.300;2022-07-23T08:38:20;18.80;99.90
18797;DHT22;9526;52.612;13.300;2022-07-23T08:40:46;18.90;99.90
18797;DHT22;9526;52.612;13.300;2022-07-23T08:43:12;19.00;99.90
18797;DHT22;9526;52.612;13.300;2022-07-23T08:45:40;19.00;99.90
18797;DHT22;9526;52.612;13.300;2022-07-23T08:48:08;18.80;99.90
18797;DHT22;9526;52.612;13.300;2022-07-23T08:50:34;18.90;99.90
18797;DHT22;9526;52.612;13.300;2022-07-23T08:53:02;19.00;99.90
18797;DHT22;9526;52.612;13.300;2022-07-23T08:55:26;19.20;99.90
18797;DHT22;9526;52.612;13.300;2022-07-23T08:57:51;19.20;99.90
18797;DHT22;9526;52.612;13.300;2022-07-23T09:00:16;19.20;99.90
18797;DHT22;9526;52.612;13.300;2022-07-23T09:02:43;19.40;99.90
18797;DHT22;9526;52.612;13.300;2022-07-23T09:05:08;19.60;99.90
18797;DHT22;9526;52.612;13.300;2022-07-23T09:07:33;19.80;99.90
18797;DHT22;9526;52.612;13.300;2022-07-23T09:10:06;19.90;99.90
18797;DHT22;9526;52.612;13.300;2022-07-23T09:12:31;20.10;99.90
18797;DHT22;9526;52.612;13.300;2022-07-23T09:14:55;20.20;99.90
18797;DHT22;9526;52.612;13.300;2022-07-23T09:17:18;20.40;99.90
18797;DHT22;9526;52.612;13.300;2022-07-23T09:19:45;20.40;99.90
18797;DHT22;9526;52.612;13.300;2022-07-23T09:22:23;20.40;99.90
18797;DHT22;9526;52.612;13.300;2022-07-23T09:25:08;20.30;99.90
18797;DHT22;9526;52.612;13.300;2022-07-23T09:27:53;20.50;99.90
18797;DHT22;9526;52.612;13.300;2022-07-23T09:30:19;20.70;99.90
18797;DHT22;9526;52.612;13.300;2022-07-23T09:32:44;20.80;99.90
18797;DHT22;9526;52.612;13.300;2022-07-23T09:35:43;21.00;99.90
18797;DHT22;9526;52.612;13.300;2022-07-23T09:38:08;20.90;99.90
18797;DHT22;9526;52.612;13.300;2022-07-23T09:40:32;21.10;99.90
18797;DHT22;9526;52.612;13.300;2022-07-23T09:42:56;21.00;99.90
18797;DHT22;9526;52.612;13.300;2022-07-23T09:45:20;21.00;99.90
18797;DHT22;9526;52.612;13.300;2022-07-23T09:47:45;21.00;99.90
18797;DHT22;9526;52.612;13.300;2022-07-23T09:50:10;21.00;99.90
18797;DHT22;9526;52.612;13.300;2022-07-23T09:52:43;21.10;99.90
18797;DHT22;9526;52.612;13.300;2022-07-23T09:55:08;21.10;99.90
18797;DHT22;9526;52.612;13.300;2022-07-23T09:57:33;21.40;99.90
18797;DHT22;9526;52.612;13.300;2022-07-23T09:59:58;21.50;99.90
18797;DHT22;9526;52.612;13.300;2022-07-23T10:02:25;21.60;99.90
18797;DHT22;9526;52.612;13.300;2022-07-23T10:05:10;21.80;99.90
18797;DHT22;9526;52.612;13.300;2022-07-23T10:08:03;22.10;99.90
18797;DHT22;9526;52.612;13.300;2022-07-23T10:10:46;22.00;99.90
18797;DHT22;9526;52.612;13.300;2022-07-23T10:13:43;22.10;99.90
18797;DHT22;9526;52.612;13.300;2022-07-23T10:16:38;22.40;99.90
18797;DHT22;9526;52.612;13.300;2022-07-23T10:19:03;22.40;99.90
18797;DHT22;9526;52.612;13.300;2022-07-23T10:21:39;22.50;99.90
18797;DHT22;9526;52.612;13.300;2022-07-23T10:24:18;22.20;99.90
18797;DHT22;9526;52.612;13.300;2022-07-23T10:27:02;22.60;99.90
18797;DHT22;9526;52.612;13.300;2022-07-23T10:29:42;22.70;99.90
18797;DHT22;9526;52.612;13.300;2022-07-23T10:32:20;22.60;99.90
18797;DHT22;9526;52.612;13.300;2022-07-23T10:35:00;22.90;99.90
18797;DHT22;9526;52.612;13.300;2022-07-23T10:37:35;22.70;99.90
18797;DHT22;9526;52.612;13.300;2022-07-23T10:40:16;22.80;99.90
18797;DHT22;9526;52.612;13.300;2022-07-23T10:42:43;23.00;99.90
18797;DHT22;9526;52.612;13.300;2022-07-23T10:45:28;23.20;99.90
18797;DHT22;9526;52.612;13.300;2022-07-23T10:47:54;23.30;99.90
18797;DHT22;9526;52.612;13.300;2022-07-23T10:50:20;23.40;99.90
18797;DHT22;9526;52.612;13.300;2022-07-23T10:53:10;23.50;99.90
18797;DHT22;9526;52.612;13.300;2022-07-23T10:55:51;23.60;99.90
18797;DHT22;9526;52.612;13.300;2022-07-23T10:58:20;23.90;99.90
18797;DHT22;9526;52.612;13.300;2022-07-23T11:00:45;23.80;99.90
18797;DHT22;9526;52.612;13.300;2022-07-23T11:03:29;24.00;99.90
18797;DHT22;9526;52.612;13.300;2022-07-23T11:05:55;24.10;99.90
18797;DHT22;9526;52.612;13.300;2022-07-23T11:08:19;24.30;99.90
18797;DHT22;9526;52.612;13.300;2022-07-23T11:10:48;24.30;99.90
18797;DHT22;9526;52.612;13.300;2022-07-23T11:13:30;24.30;99.90
18797;DHT22;9526;52.612;13.300;2022-07-23T11:16:07;24.60;99.90
18797;DHT22;9526;52.612;13.300;2022-07-23T11:24:23;24.60;99.90
18797;DHT22;9526;52.612;13.300;2022-07-23T11:27:00;24.60;99.90
18797;DHT22;9526;52.612;13.300;2022-07-23T11:29:54;24.50;99.90
18797;DHT22;9526;52.612;13.300;2022-07-23T11:32:37;25.10;99.90
18797;DHT22;9526;52.612;13.300;2022-07-23T11:35:03;25.40;99.90
18797;DHT22;9526;52.612;13.300;2022-07-23T11:37:41;25.70;99.90
18797;DHT22;9526;52.612;13.300;2022-07-23T11:40:10;25.50;99.90
18797;DHT22;9526;52.612;13.300;2022-07-23T11:42:38;25.50;99.90
18797;DHT22;9526;52.612;13.300;2022-07-23T11:45:04;25.60;99.90
18797;DHT22;9526;52.612;13.300;2022-07-23T11:47:29;25.40;99.90
18797;DHT22;9526;52.612;13.300;2022-07-23T11:49:53;25.60;99.90
18797;DHT22;9526;52.612;13.300;2022-07-23T11:52:17;25.90;99.90
18797;DHT22;9526;52.612;13.300;2022-07-23T11:54:48;25.70;98.90
18797;DHT22;9526;52.612;13.300;2022-07-23T11:57:12;25.70;99.90
18797;DHT22;9526;52.612;13.300;2022-07-23T11:59:39;25.80;99.90
18797;DHT22;9526;52.612;13.300;2022-07-23T12:02:04;25.90;98.50
18797;DHT22;9526;52.612;13.300;2022-07-23T12:04:37;26.10;99.90
18797;DHT22;9526;52.612;13.300;2022-07-23T12:07:01;26.10;99.90
18797;DHT22;9526;52.612;13.300;2022-07-23T12:09:25;26.10;99.90
18797;DHT22;9526;52.612;13.300;2022-07-23T12:11:58;26.20;99.90
18797;DHT22;9526;52.612;13.300;2022-07-23T12:14:22;26.30;99.90
18797;DHT22;9526;52.612;13.300;2022-07-23T12:16:47;26.10;99.40
18797;DHT22;9526;52.612;13.300;2022-07-23T12:19:30;26.20;99.90
18797;DHT22;9526;52.612;13.300;2022-07-23T12:21:54;26.10;99.30
18797;DHT22;9526;52.612;13.300;2022-07-23T12:24:17;26.30;99.90
18797;DHT22;9526;52.612;13.300;2022-07-23T12:27:07;26.20;97.80
18797;DHT22;9526;52.612;13.300;2022-07-23T12:29:34;26.40;99.90
18797;DHT22;9526;52.612;13.300;2022-07-23T12:31:59;26.60;99.90
18797;DHT22;9526;52.612;13.300;2022-07-23T12:34:24;26.50;99.70
18797;DHT22;9526;52.612;13.300;2022-07-23T12:36:48;26.40;99.90
18797;DHT22;9526;52.612;13.300;2022-07-23T12:39:12;26.60;98.90
18797;DHT22;9526;52.612;13.300;2022-07-23T12:41:53;26.90;99.90
18797;DHT22;9526;52.612;13.300;2022-07-23T12:44:18;26.90;98.70
18797;DHT22;9526;52.612;13.300;2022-07-23T12:46:42;27.40;99.80
18797;DHT22;9526;52.612;13.300;2022-07-23T12:49:07;27.40;98.30
18797;DHT22;9526;52.612;13.300;2022-07-23T12:51:32;27.40;99.90
18797;DHT22;9526;52.612;13.300;2022-07-23T12:53:58;27.40;98.80
18797;DHT22;9526;52.612;13.300;2022-07-23T12:56:28;27.20;97.60
18797;DHT22;9526;52.612;13.300;2022-07-23T12:58:54;26.90;96.10
18797;DHT22;9526;52.612;13.300;2022-07-23T13:01:24;27.00;99.50
18797;DHT22;9526;52.612;13.300;2022-07-23T13:03:59;27.10;97.00
18797;DHT22;9526;52.612;13.300;2022-07-23T13:06:35;27.40;96.90
18797;DHT22;9526;52.612;13.300;2022-07-23T13:09:03;27.60;98.20
18797;DHT22;9526;52.612;13.300;2022-07-23T13:11:30;28.10;96.20
18797;DHT22;9526;52.612;13.300;2022-07-23T13:13:54;27.60;96.10
18797;DHT22;9526;52.612;13.300;2022-07-23T13:16:17;27.90;95.70
18797;DHT22;9526;52.612;13.300;2022-07-23T13:18:42;28.20;96.80
18797;DHT22;9526;52.612;13.300;2022-07-23T13:21:06;28.30;97.60
18797;DHT22;9526;52.612;13.300;2022-07-23T13:23:32;28.60;98.50
18797;DHT22;9526;52.612;13.300;2022-07-23T13:25:55;28.70;94.00
18797;DHT22;9526;52.612;13.300;2022-07-23T13:28:20;28.70;95.40
18797;DHT22;9526;52.612;13.300;2022-07-23T13:30:46;28.60;95.40
18797;DHT22;9526;52.612;13.300;2022-07-23T13:33:11;28.30;92.20
18797;DHT22;9526;52.612;13.300;2022-07-23T13:35:37;28.00;96.10
18797;DHT22;9526;52.612;13.300;2022-07-23T13:38:01;28.10;94.10
18797;DHT22;9526;52.612;13.300;2022-07-23T13:40:29;28.50;95.30
18797;DHT22;9526;52.612;13.300;2022-07-23T13:42:53;28.90;96.00
18797;DHT22;9526;52.612;13.300;2022-07-23T13:45:17;28.60;93.00
18797;DHT22;9526;52.612;13.300;2022-07-23T13:47:41;28.30;91.90
18797;DHT22;9526;52.612;13.300;2022-07-23T13:50:25;28.70;93.80
18797;DHT22;9526;52.612;13.300;2022-07-23T13:52:54;28.50;92.10
18797;DHT22;9526;52.612;13.300;2022-07-23T13:55:18;28.60;94.50
18797;DHT22;9526;52.612;13.300;2022-07-23T13:57:43;29.00;94.90
18797;DHT22;9526;52.612;13.300;2022-07-23T14:00:08;29.10;91.60
18797;DHT22;9526;52.612;13.300;2022-07-23T14:02:53;28.50;91.80
18797;DHT22;9526;52.612;13.300;2022-07-23T14:05:17;28.30;91.60
18797;DHT22;9526;52.612;13.300;2022-07-23T14:07:41;28.10;92.50
18797;DHT22;9526;52.612;13.300;2022-07-23T14:10:07;28.30;91.50
18797;DHT22;9526;52.612;13.300;2022-07-23T14:12:31;27.90;89.90
18797;DHT22;9526;52.612;13.300;2022-07-23T14:14:59;27.50;90.10
18797;DHT22;9526;52.612;13.300;2022-07-23T14:17:22;27.60;93.90
18797;DHT22;9526;52.612;13.300;2022-07-23T14:19:47;27.70;91.50
18797;DHT22;9526;52.612;13.300;2022-07-23T14:22:12;27.70;91.80
18797;DHT22;9526;52.612;13.300;2022-07-23T14:24:36;27.60;93.10
18797;DHT22;9526;52.612;13.300;2022-07-23T14:27:00;27.60;91.20
18797;DHT22;9526;52.612;13.300;2022-07-23T14:29:24;27.50;91.60
18797;DHT22;9526;52.612;13.300;2022-07-23T14:31:50;27.40;91.20
18797;DHT22;9526;52.612;13.300;2022-07-23T14:34:15;27.30;93.00
18797;DHT22;9526;52.612;13.300;2022-07-23T14:36:48;27.60;91.30
18797;DHT22;9526;52.612;13.300;2022-07-23T14:39:12;27.60;91.10
18797;DHT22;9526;52.612;13.300;2022-07-23T14:41:37;27.80;92.80
18797;DHT22;9526;52.612;13.300;2022-07-23T14:44:01;27.90;90.10
18797;DHT22;9526;52.612;13.300;2022-07-23T14:46:27;28.10;90.40
18797;DHT22;9526;52.612;13.300;2022-07-23T14:48:52;28.10;88.30
18797;DHT22;9526;52.612;13.300;2022-07-23T14:51:16;28.00;90.60
18797;DHT22;9526;52.612;13.300;2022-07-23T14:53:40;27.90;90.40
18797;DHT22;9526;52.612;13.300;2022-07-23T14:56:05;27.80;89.50
18797;DHT22;9526;52.612;13.300;2022-07-23T14:58:29;27.90;88.70
18797;DHT22;9526;52.612;13.300;2022-07-23T15:00:53;27.70;88.40
18797;DHT22;9526;52.612;13.300;2022-07-23T15:03:16;27.70;87.80
18797;DHT22;9526;52.612;13.300;2022-07-23T15:05:42;27.70;87.40
18797;DHT22;9526;52.612;13.300;2022-07-23T15:08:06;27.50;91.10
18797;DHT22;9526;52.612;13.300;2022-07-23T15:10:30;27.70;87.60
18797;DHT22;9526;52.612;13.300;2022-07-23T15:12:54;27.60;91.20
18797;DHT22;9526;52.612;13.300;2022-07-23T15:15:19;27.60;86.60
18797;DHT22;9526;52.612;13.300;2022-07-23T15:17:43;27.40;89.00
18797;DHT22;9526;52.612;13.300;2022-07-23T15:20:07;27.50;89.50
18797;DHT22;9526;52.612;13.300;2022-07-23T15:22:33;27.50;87.60
18797;DHT22;9526;52.612;13.300;2022-07-23T15:24:57;27.20;89.40
18797;DHT22;9526;52.612;13.300;2022-07-23T15:27:21;27.10;88.70
18797;DHT22;9526;52.612;13.300;2022-07-23T15:29:46;27.10;86.80
18797;DHT22;9526;52.612;13.300;2022-07-23T15:32:10;27.00;86.30
18797;DHT22;9526;52.612;13.300;2022-07-23T15:34:35;27.00;88.70